To NAV CANADA Home Page Login to a new session Search on AWWS site Feedback and Comments Disclaimer Vers la page française équivalente Tips FAQ What's new on the site To the Forecasts and Observations / NOTAM section To "File a Flight Plan" website Publications and other links Update of the User's profile FIC Telephone Numbers My Weather Data Folder Route Weather Data Regional Weather Data Local Weather Data To the Forecasts and Observations / NOTAM section
Request Generated 03/05/2015 at 16:01:34 UTC . Weather information available at that time is displayed.

METAR/TAF

TORONTO/BILLY BISHOP TORONTO CITY AIRPORT/ON    (show WxCam)

METAR CYTZ 051500Z AUTO 33010G16KT 9SM CLR M13/M19 A3032 RMK PRESFR
SLP274=
METAR CYTZ 051400Z AUTO 33008G15KT 300V010 9SM BKN190 BKN220 M14/M20
A3033 RMK PRESFR SLP277=
METAR CYTZ 051300Z AUTO 32010G15KT 9SM CLR M15/M20 A3032 RMK SLP272=

TAF CYTZ 051338Z 0514/0614 31012KT P6SM SCT240
FM052000 28010KT P6SM SKC
BECMG 0607/0609 25010KT
RMK FCST BASED ON AUTO OBS. NXT FCST BY 052000Z=
Your time UTC time
Weather data provided by Environment Canada and NAV CANADA